Time;durP1;ratioP1;P1;durP2;ratioP2;P2;SDS_P1;SDS_P2;PMS_P1;PMS_P2;Temp;Humidity;BMP_temperature;BMP_pressure;BME280_temperature;BME280_humidity;BME280_pressure;Samples;Min_cycle;Max_cycle;Signal;HPM_P1;HPM_P2
2022/08/18 00:01:47;;;;;;;35.90;32.30;;;;;;;20.56;100.00;98535.10;105218;1271;61307;-76
2022/08/18 00:04:15;;;;;;;36.80;33.40;;;;;;;20.54;100.00;98530.55;105285;1271;61163;-77
2022/08/18 00:06:41;;;;;;;35.20;32.00;;;;;;;20.54;100.00;98528.29;105283;1271;75453;-77
2022/08/18 00:09:10;;;;;;;34.60;31.30;;;;;;;20.52;100.00;98526.32;105266;1271;69226;-77
2022/08/18 00:11:40;;;;;;;34.00;31.10;;;;;;;20.48;100.00;98529.83;105265;1271;74234;-78
2022/08/18 00:14:09;;;;;;;34.30;31.30;;;;;;;20.44;100.00;98538.10;105365;1269;61367;-77
2022/08/18 00:16:35;;;;;;;35.60;32.40;;;;;;;20.39;100.00;98545.13;105420;1268;61386;-79
2022/08/18 00:19:02;;;;;;;35.30;31.80;;;;;;;20.37;100.00;98546.45;105240;1268;75541;-79
2022/08/18 00:21:29;;;;;;;35.80;32.60;;;;;;;20.39;100.00;98547.13;105255;1268;70160;-78
2022/08/18 00:23:55;;;;;;;32.90;30.10;;;;;;;20.36;100.00;98543.99;105262;1268;72843;-77
2022/08/18 00:26:22;;;;;;;31.20;28.60;;;;;;;20.32;100.00;98548.45;105008;1268;61368;-77
2022/08/18 00:28:48;;;;;;;33.10;30.20;;;;;;;20.26;100.00;98546.73;105294;1268;61790;-77
2022/08/18 00:31:15;;;;;;;32.90;29.90;;;;;;;20.23;100.00;98546.98;105268;1268;61360;-77
2022/08/18 00:33:42;;;;;;;35.20;32.30;;;;;;;20.20;100.00;98547.81;105247;1268;70126;-77
2022/08/18 00:36:10;;;;;;;35.10;32.00;;;;;;;20.17;100.00;98545.45;105253;1268;74319;-77
2022/08/18 00:38:38;;;;;;;37.90;34.70;;;;;;;20.15;100.00;98534.85;105268;1268;61399;-77
2022/08/18 00:41:05;;;;;;;35.30;32.30;;;;;;;20.15;100.00;98536.64;105332;1268;61261;-77
2022/08/18 00:43:40;;;;;;;39.90;36.30;;;;;;;20.15;100.00;98538.97;105284;1268;76374;-77
2022/08/18 00:46:29;;;;;;;37.70;34.50;;;;;;;20.16;100.00;98533.27;105301;1268;69400;-77
2022/08/18 00:48:56;;;;;;;35.20;32.10;;;;;;;20.16;100.00;98528.01;105245;1269;74197;-78
2022/08/18 00:51:26;;;;;;;36.40;33.20;;;;;;;20.14;100.00;98523.59;105361;1268;61287;-77
2022/08/18 00:54:02;;;;;;;34.30;31.10;;;;;;;20.10;100.00;98529.89;105363;1268;61824;-78
2022/08/18 00:56:38;;;;;;;33.20;30.10;;;;;;;20.07;100.00;98530.08;105259;1268;73929;-77
2022/08/18 00:59:31;;;;;;;39.10;35.50;;;;;;;20.03;100.00;98527.80;105233;1268;68696;-76
2022/08/18 01:02:03;;;;;;;39.80;36.20;;;;;;;20.02;100.00;98527.02;105301;1268;73536;-77
2022/08/18 01:05:17;;;;;;;35.10;32.20;;;;;;;20.00;100.00;98524.69;105213;1268;61216;-77
2022/08/18 01:07:45;;;;;;;35.50;32.30;;;;;;;19.95;100.00;98526.30;104489;1277;61878;-77
2022/08/18 01:10:18;;;;;;;37.30;34.00;;;;;;;19.90;100.00;98525.84;104567;1279;75712;-76
2022/08/18 01:12:49;;;;;;;36.00;32.70;;;;;;;19.88;100.00;98526.25;104721;1279;69582;-77
2022/08/18 01:15:18;;;;;;;37.50;34.20;;;;;;;19.83;100.00;98527.85;104492;1279;74449;-77
2022/08/18 01:23:28;;;;;;;34.90;31.80;;;;;;;19.80;100.00;98521.87;104484;1279;75817;-77
2022/08/18 01:25:59;;;;;;;34.90;31.70;;;;;;;19.76;100.00;98537.16;104479;1279;68739;-77
2022/08/18 01:28:27;;;;;;;38.60;35.00;;;;;;;19.72;100.00;98544.41;104784;1279;74248;-78
2022/08/18 01:30:57;;;;;;;39.50;35.80;;;;;;;19.65;100.00;98541.63;104634;1279;61595;-76
2022/08/18 01:33:26;;;;;;;36.50;33.40;;;;;;;19.56;100.00;98539.30;104713;1279;61420;-77
2022/08/18 01:35:53;;;;;;;38.10;34.70;;;;;;;19.48;100.00;98528.91;104568;1279;75427;-79
2022/08/18 01:38:25;;;;;;;37.90;34.40;;;;;;;19.44;100.00;98528.07;104530;1279;69460;-78
2022/08/18 01:40:53;;;;;;;39.20;35.70;;;;;;;19.42;100.00;98528.67;104497;1279;73270;-78
2022/08/18 01:43:20;;;;;;;38.00;34.50;;;;;;;19.40;100.00;98520.54;105020;1271;61192;-78
2022/08/18 01:45:47;;;;;;;38.60;35.00;;;;;;;19.39;100.00;98510.30;105264;1271;61239;-77
2022/08/18 01:48:14;;;;;;;38.20;34.90;;;;;;;19.36;100.00;98510.77;105239;1271;74774;-78
2022/08/18 01:50:42;;;;;;;40.60;37.10;;;;;;;19.33;100.00;98512.74;105209;1270;69317;-77
2022/08/18 01:53:10;;;;;;;33.00;30.20;;;;;;;19.28;100.00;98510.52;104964;1271;71482;-77
2022/08/18 01:55:43;;;;;;;34.70;31.60;;;;;;;19.22;100.00;98512.34;105270;1271;61300;-77
2022/08/18 01:58:11;;;;;;;33.90;30.90;;;;;;;19.18;100.00;98518.15;105231;1270;61288;-78
2022/08/18 02:00:39;;;;;;;35.70;32.60;;;;;;;19.15;100.00;98510.02;105288;1271;75188;-77
2022/08/18 02:03:10;;;;;;;43.50;39.50;;;;;;;19.14;100.00;98507.48;105285;1271;68726;-77
2022/08/18 02:05:47;;;;;;;45.50;41.30;;;;;;;19.12;100.00;98502.50;105044;1271;71180;-77
2022/08/18 02:08:14;;;;;;;42.10;38.20;;;;;;;19.12;100.00;98496.98;105240;1271;61281;-77
2022/08/18 02:10:41;;;;;;;42.30;38.70;;;;;;;19.11;100.00;98496.79;105290;1270;61354;-78
2022/08/18 02:13:08;;;;;;;43.80;39.90;;;;;;;19.09;100.00;98499.86;105244;1271;75142;-77
2022/08/18 02:15:34;;;;;;;45.20;41.00;;;;;;;19.09;100.00;98499.31;105215;1271;69974;-78
2022/08/18 02:18:01;;;;;;;44.40;40.50;;;;;;;19.08;100.00;98501.53;105203;1271;61387;-77
2022/08/18 02:20:28;;;;;;;48.00;43.70;;;;;;;19.07;100.00;98496.98;105251;1271;61368;-78
2022/08/18 02:22:54;;;;;;;47.70;43.10;;;;;;;19.07;100.00;98498.64;105210;1271;62038;-78
2022/08/18 02:25:21;;;;;;;43.00;39.00;;;;;;;19.05;100.00;98502.75;105259;1271;75889;-77
2022/08/18 02:27:48;;;;;;;42.30;38.50;;;;;;;19.02;100.00;98501.35;105261;1271;69808;-77
2022/08/18 02:30:17;;;;;;;40.10;36.50;;;;;;;18.98;100.00;98500.86;105208;1271;61216;-77
2022/08/18 02:32:44;;;;;;;38.90;35.40;;;;;;;18.94;100.00;98504.27;105280;1271;61374;-78
2022/08/18 02:35:11;;;;;;;39.00;35.70;;;;;;;18.89;100.00;98506.22;105281;1271;61866;-78
2022/08/18 02:37:39;;;;;;;43.00;39.10;;;;;;;18.85;100.00;98511.36;105239;1270;76165;-77
2022/08/18 02:40:06;;;;;;;42.00;38.10;;;;;;;18.83;100.00;98508.86;105332;1271;69066;-77
2022/08/18 02:42:33;;;;;;;42.60;38.70;;;;;;;18.82;100.00;98505.71;105238;1270;73067;-78
2022/08/18 02:44:59;;;;;;;45.30;41.10;;;;;;;18.81;100.00;98507.43;105222;1271;61533;-77
2022/08/18 02:47:26;;;;;;;44.60;40.40;;;;;;;18.79;100.00;98511.20;105259;1271;62156;-78
2022/08/18 02:49:53;;;;;;;43.70;39.70;;;;;;;18.76;100.00;98514.58;105271;1271;75251;-78
2022/08/18 02:52:19;;;;;;;42.00;38.30;;;;;;;18.74;100.00;98515.38;105267;1270;61281;-78
2022/08/18 02:54:47;;;;;;;43.10;38.90;;;;;;;18.71;100.00;98517.83;105289;1271;72457;-77
2022/08/18 02:57:13;;;;;;;44.20;40.30;;;;;;;18.67;100.00;98523.00;104982;1271;61297;-77
2022/08/18 02:59:40;;;;;;;47.80;43.40;;;;;;;18.63;100.00;98531.53;105267;1271;61331;-77
2022/08/18 03:02:09;;;;;;;47.60;43.30;;;;;;;18.61;100.00;98536.58;105235;1271;75669;-78
2022/08/18 03:04:36;;;;;;;52.70;47.80;;;;;;;18.60;100.00;98535.37;104936;1271;70552;-77
2022/08/18 03:07:05;;;;;;;55.40;50.20;;;;;;;18.62;100.00;98536.12;105312;1271;74341;-78
2022/08/18 03:09:32;;;;;;;59.40;53.90;;;;;;;18.62;100.00;98534.46;105265;1271;61391;-77
2022/08/18 03:11:59;;;;;;;51.70;47.00;;;;;;;18.64;100.00;98533.36;104954;1271;62013;-77
2022/08/18 03:14:26;;;;;;;56.50;51.50;;;;;;;18.66;100.00;98538.38;105251;1271;75608;-78
2022/08/18 03:16:54;;;;;;;56.00;50.80;;;;;;;18.68;100.00;98537.80;105220;1271;69506;-78
2022/08/18 03:19:28;;;;;;;56.40;51.30;;;;;;;18.72;100.00;98532.92;105226;1271;73116;-77
2022/08/18 03:21:58;;;;;;;55.90;50.70;;;;;;;18.74;100.00;98535.14;105220;1270;62097;-78
2022/08/18 03:24:26;;;;;;;54.40;49.50;;;;;;;18.77;100.00;98535.78;105325;1270;61546;-78
2022/08/18 03:26:55;;;;;;;55.00;49.60;;;;;;;18.79;100.00;98542.39;105100;1271;76038;-77
2022/08/18 03:29:22;;;;;;;53.60;48.50;;;;;;;18.79;100.00;98542.77;105205;1270;70231;-78
2022/08/18 03:31:50;;;;;;;49.40;44.90;;;;;;;18.77;100.00;98544.29;105227;1271;73245;-77
2022/08/18 03:34:19;;;;;;;48.50;44.30;;;;;;;18.74;100.00;98546.16;105204;1271;61410;-78
2022/08/18 03:36:48;;;;;;;49.10;44.60;;;;;;;18.72;100.00;98543.30;105215;1271;61869;-77
2022/08/18 03:39:16;;;;;;;44.10;40.30;;;;;;;18.70;100.00;98546.09;105288;1271;75196;-78
2022/08/18 03:41:44;;;;;;;42.90;39.20;;;;;;;18.66;100.00;98543.02;105344;1271;69220;-78
2022/08/18 03:44:13;;;;;;;40.70;37.10;;;;;;;18.63;100.00;98544.55;105390;1269;73763;-77
2022/08/18 03:46:42;;;;;;;44.40;40.50;;;;;;;18.61;100.00;98548.77;105337;1269;61326;-76
2022/08/18 03:49:09;;;;;;;41.60;37.80;;;;;;;18.59;100.00;98550.99;105243;1271;61271;-77
2022/08/18 03:51:36;;;;;;;46.70;42.30;;;;;;;18.59;100.00;98550.79;105239;1271;74973;-76
2022/08/18 03:54:04;;;;;;;40.70;37.10;;;;;;;18.61;100.00;98555.41;105337;1271;70073;-77
2022/08/18 03:56:34;;;;;;;40.50;36.90;;;;;;;18.64;100.00;98558.33;105317;1271;73675;-77
2022/08/18 03:59:04;;;;;;;37.40;34.10;;;;;;;18.66;100.00;98560.11;105296;1271;61389;-77
2022/08/18 04:01:34;;;;;;;37.00;33.60;;;;;;;18.68;100.00;98558.88;105307;1271;62377;-76
2022/08/18 04:04:04;;;;;;;38.90;35.40;;;;;;;18.71;100.00;98559.83;105239;1271;74445;-76
2022/08/18 04:06:32;;;;;;;;;;;;;;;18.86;100.00;98554.55;105252;1271;69110;-76
2022/08/18 04:09:03;;;;;;;39.80;36.30;;;;;;;19.13;100.00;98551.30;105175;1271;74557;-78
2022/08/18 04:11:33;;;;;;;42.30;38.30;;;;;;;19.44;100.00;98546.23;105271;1271;61411;-78
2022/08/18 04:13:59;;;;;;;;;;;;;;;19.77;100.00;98552.54;105293;1271;61513;-77
2022/08/18 04:16:28;;;;;;;42.00;38.00;;;;;;;20.07;100.00;98550.40;104940;1271;61282;-77
2022/08/18 04:19:01;;;;;;;42.80;38.80;;;;;;;20.40;100.00;98552.44;105332;1271;68715;-77
2022/08/18 04:21:30;;;;;;;41.10;37.40;;;;;;;20.76;100.00;98555.52;105092;1271;72743;-79
2022/08/18 04:24:01;;;;;;;38.00;34.60;;;;;;;21.09;100.00;98553.94;105596;1271;61247;-78
2022/08/18 04:26:28;;;;;;;37.90;34.60;;;;;;;21.37;100.00;98552.31;105267;1271;61322;-77
2022/08/18 04:28:55;;;;;;;39.20;35.70;;;;;;;21.68;100.00;98551.29;105298;1271;76737;-78
2022/08/18 04:31:23;;;;;;;39.60;36.00;;;;;;;21.97;100.00;98549.67;105222;1271;61289;-78
2022/08/18 04:33:50;;;;;;;37.80;34.50;;;;;;;22.27;100.00;98547.79;105251;1270;73166;-78
2022/08/18 04:36:17;;;;;;;36.10;32.90;;;;;;;22.39;100.00;98547.07;105253;1271;61371;-78
2022/08/18 04:38:43;;;;;;;35.10;32.00;;;;;;;22.45;100.00;98548.73;105249;1271;61770;-78
2022/08/18 04:41:12;;;;;;;36.20;33.30;;;;;;;22.57;100.00;98549.35;105192;1271;74120;-77
2022/08/18 04:43:40;;;;;;;34.90;31.70;;;;;;;22.80;100.00;98547.98;105275;1271;69416;-76
2022/08/18 04:46:07;;;;;;;34.10;31.40;;;;;;;23.04;100.00;98555.54;105335;1270;73302;-77
2022/08/18 04:48:38;;;;;;;36.70;33.50;;;;;;;23.23;100.00;98552.89;105188;1271;61385;-77
2022/08/18 04:51:12;;;;;;;37.20;33.90;;;;;;;23.49;100.00;98548.84;105200;1271;61983;-78
2022/08/18 04:53:45;;;;;;;37.00;34.00;;;;;;;23.67;100.00;98547.66;105221;1270;75314;-77
2022/08/18 04:56:25;;;;;;;36.90;33.70;;;;;;;23.86;100.00;98549.95;105238;1271;69483;-76
2022/08/18 04:58:57;;;;;;;36.10;33.20;;;;;;;24.12;100.00;98550.38;105317;1271;72823;-76
2022/08/18 05:01:29;;;;;;;33.20;30.20;;;;;;;24.32;100.00;98552.08;104995;1271;61285;-78
2022/08/18 05:03:57;;;;;;;31.70;29.10;;;;;;;24.59;100.00;98552.98;105316;1271;61151;-80
2022/08/18 05:06:27;;;;;;;30.40;27.90;;;;;;;24.88;100.00;98548.38;105201;1271;75182;-72
2022/08/18 05:08:57;;;;;;;30.40;27.80;;;;;;;25.13;100.00;98549.70;105362;1270;69754;-73
2022/08/18 05:11:28;;;;;;;30.60;27.70;;;;;;;25.31;100.00;98548.20;105226;1271;73187;-72
2022/08/18 05:13:59;;;;;;;28.30;25.80;;;;;;;25.52;100.00;98547.65;105262;1271;61399;-72
2022/08/18 05:16:26;;;;;;;28.90;26.50;;;;;;;25.73;100.00;98544.33;105228;1271;61288;-73
2022/08/18 05:18:53;;;;;;;27.60;25.20;;;;;;;25.89;100.00;98549.00;105186;1271;75125;-70
2022/08/18 05:21:21;;;;;;;28.80;26.00;;;;;;;26.01;100.00;98551.51;105220;1271;69203;-71
2022/08/18 05:23:48;;;;;;;26.80;24.50;;;;;;;26.16;100.00;98548.16;105224;1271;74190;-71
2022/08/18 05:26:18;;;;;;;27.00;24.80;;;;;;;26.36;100.00;98548.44;105356;1270;61308;-71
2022/08/18 05:28:45;;;;;;;26.40;24.00;;;;;;;26.52;100.00;98557.81;105337;1270;61291;-72
2022/08/18 05:31:18;;;;;;;27.10;24.80;;;;;;;26.68;100.00;98560.28;105192;1271;75349;-72
2022/08/18 05:33:47;;;;;;;28.40;25.90;;;;;;;26.84;100.00;98558.56;104922;1271;70431;-72
2022/08/18 05:36:42;;;;;;;28.00;25.70;;;;;;;26.99;100.00;98559.33;105377;1271;73715;-71
2022/08/18 05:39:19;;;;;;;28.20;25.90;;;;;;;27.14;100.00;98565.67;105207;1271;61423;-73
2022/08/18 05:42:11;;;;;;;28.90;26.60;;;;;;;27.24;100.00;98566.90;105231;1271;61810;-72
2022/08/18 05:44:45;;;;;;;27.20;24.80;;;;;;;27.31;100.00;98565.45;105236;1271;74213;-73
2022/08/18 05:47:26;;;;;;;25.70;23.60;;;;;;;27.33;100.00;98561.69;105048;1271;67418;-72
2022/08/18 05:50:02;;;;;;;26.00;23.70;;;;;;;27.46;100.00;98558.35;105228;1271;74296;-72
2022/08/18 05:52:53;;;;;;;28.40;26.00;;;;;;;27.63;100.00;98563.02;104950;1271;61361;-71
2022/08/18 05:58:37;;;;;;;28.80;26.20;;;;;;;27.70;100.00;98566.76;105086;1271;75183;-72
2022/08/18 06:01:29;;;;;;;26.80;24.60;;;;;;;27.93;100.00;98564.86;105214;1271;70573;-72
2022/08/18 06:04:08;;;;;;;27.10;24.80;;;;;;;28.05;100.00;98565.91;105443;1271;72671;-72
2022/08/18 06:06:36;;;;;;;26.20;24.10;;;;;;;28.12;100.00;98565.27;105214;1271;61302;-73
2022/08/18 06:09:05;;;;;;;25.60;23.50;;;;;;;28.23;100.00;98566.20;105373;1270;61232;-72
2022/08/18 06:11:31;;;;;;;24.90;22.90;;;;;;;28.26;100.00;98568.61;105204;1271;75184;-72
2022/08/18 06:14:00;;;;;;;26.50;24.30;;;;;;;28.22;100.00;98572.15;105276;1271;69426;-73
2022/08/18 06:17:00;;;;;;;24.40;22.20;;;;;;;28.08;100.00;98571.21;105258;1271;73521;-71
2022/08/18 06:19:32;;;;;;;25.20;23.20;;;;;;;28.00;100.00;98575.87;105048;1271;61467;-72
2022/08/18 06:22:14;;;;;;;24.70;22.60;;;;;;;27.96;100.00;98576.16;105250;1271;61263;-73
2022/08/18 06:24:55;;;;;;;23.40;21.30;;;;;;;28.06;100.00;98577.45;105204;1271;75563;-74
2022/08/18 06:27:33;;;;;;;23.20;21.30;;;;;;;28.14;100.00;98578.64;105125;1271;68845;-74
2022/08/18 06:30:16;;;;;;;23.00;21.00;;;;;;;28.24;100.00;98587.09;105260;1271;74420;-73
2022/08/18 06:32:51;;;;;;;21.00;19.30;;;;;;;28.29;100.00;98593.36;105200;1271;61400;-72
2022/08/18 06:35:36;;;;;;;21.50;19.70;;;;;;;28.20;100.00;98594.13;105291;1271;61239;-71
2022/08/18 06:38:37;;;;;;;22.60;20.70;;;;;;;28.20;100.00;98592.10;105273;1271;76123;-72
2022/08/18 06:41:18;;;;;;;22.20;20.30;;;;;;;28.16;100.00;98595.14;104945;1271;70209;-72
2022/08/18 06:44:14;;;;;;;20.90;19.20;;;;;;;28.06;100.00;98592.16;105305;1269;74020;-71
2022/08/18 06:46:48;;;;;;;19.60;17.90;;;;;;;27.96;100.00;98594.04;104544;1277;61444;-72
2022/08/18 06:49:23;;;;;;;21.10;19.30;;;;;;;27.87;100.00;98590.45;104472;1279;62417;-74
2022/08/18 06:51:50;;;;;;;20.30;18.50;;;;;;;27.80;100.00;98593.12;104489;1280;76150;-72
2022/08/18 06:54:19;;;;;;;20.70;18.70;;;;;;;27.70;100.00;98590.35;104505;1279;69381;-73
2022/08/18 06:56:50;;;;;;;20.40;18.80;;;;;;;27.64;100.00;98594.45;104486;1279;73328;-72
2022/08/18 06:59:20;;;;;;;21.20;19.50;;;;;;;27.56;100.00;98594.45;104609;1280;61507;-72
2022/08/18 07:01:49;;;;;;;;;;;;;;;27.36;100.00;98591.04;104543;1278;61306;-71
2022/08/18 07:04:42;;;;;;;21.10;19.30;;;;;;;27.17;100.00;98585.37;104569;1277;75176;-73
2022/08/18 07:07:19;;;;;;;20.60;18.90;;;;;;;27.08;100.00;98589.40;104540;1278;69273;-73
2022/08/18 07:09:47;;;;;;;22.90;21.00;;;;;;;26.84;100.00;98590.28;104521;1278;74262;-72
2022/08/18 07:12:21;;;;;;;21.20;19.50;;;;;;;26.54;100.00;98592.61;104654;1278;61343;-72
2022/08/18 07:14:53;;;;;;;21.50;19.80;;;;;;;26.27;100.00;98591.20;104573;1278;62123;-72
2022/08/18 07:17:24;;;;;;;22.90;20.70;;;;;;;26.24;100.00;98592.80;104378;1279;75160;-72
2022/08/18 07:20:07;;;;;;;20.80;19.10;;;;;;;26.33;100.00;98590.48;104471;1279;70440;-71
2022/08/18 07:23:15;;;;;;;20.80;19.00;;;;;;;26.35;100.00;98589.92;104395;1280;73863;-73
2022/08/18 07:25:45;;;;;;;21.00;19.10;;;;;;;26.26;100.00;98588.48;105197;1271;61182;-73
2022/08/18 07:28:30;;;;;;;22.20;20.20;;;;;;;26.23;100.00;98586.67;105461;1271;61265;-72
2022/08/18 07:31:24;;;;;;;20.80;19.00;;;;;;;26.31;100.00;98583.63;104897;1271;74117;-73
2022/08/18 07:34:00;;;;;;;20.40;18.60;;;;;;;26.28;100.00;98581.58;105236;1271;69884;-71
2022/08/18 07:36:33;;;;;;;19.90;18.00;;;;;;;26.28;100.00;98577.02;105229;1271;74398;-71
2022/08/18 07:39:18;;;;;;;20.00;18.40;;;;;;;26.17;100.00;98570.55;104962;1271;61230;-72
2022/08/18 07:41:56;;;;;;;19.20;17.30;;;;;;;26.13;100.00;98570.81;105238;1270;61288;-72
2022/08/18 07:44:37;;;;;;;21.10;19.20;;;;;;;26.13;100.00;98570.35;104935;1271;74894;-72
2022/08/18 07:47:11;;;;;;;21.10;19.00;;;;;;;26.14;100.00;98565.73;105191;1271;69293;-73
2022/08/18 07:49:41;;;;;;;19.70;17.70;;;;;;;26.25;100.00;98570.70;104984;1271;73159;-72
2022/08/18 07:52:20;;;;;;;18.80;17.10;;;;;;;26.37;100.00;98567.81;104974;1271;61339;-72
2022/08/18 07:55:27;;;;;;;19.30;17.60;;;;;;;26.42;100.00;98567.86;105369;1268;62243;-73
2022/08/18 07:58:12;;;;;;;19.10;17.30;;;;;;;26.44;100.00;98573.41;105045;1271;74459;-72
2022/08/18 08:01:02;;;;;;;19.20;17.60;;;;;;;26.60;100.00;98569.52;104845;1274;69180;-73
2022/08/18 08:03:41;;;;;;;20.00;18.10;;;;;;;26.88;100.00;98574.95;104788;1277;74690;-72
2022/08/18 08:06:44;;;;;;;17.70;15.90;;;;;;;27.08;100.00;98578.92;104809;1277;61400;-73
2022/08/18 08:09:33;;;;;;;18.20;16.50;;;;;;;27.12;100.00;98573.14;103962;1283;61232;-71
2022/08/18 08:12:10;;;;;;;17.00;15.50;;;;;;;27.16;100.00;98576.34;104066;1282;75270;-72
2022/08/18 08:14:57;;;;;;;18.10;16.40;;;;;;;27.19;100.00;98583.80;103975;1282;68821;-72
2022/08/18 08:17:33;;;;;;;16.40;15.00;;;;;;;27.32;100.00;98586.08;104033;1282;72500;-74
2022/08/18 08:20:18;;;;;;;17.40;15.70;;;;;;;27.37;100.00;98584.81;104028;1282;61343;-71
2022/08/18 08:23:23;;;;;;;16.30;14.90;;;;;;;27.39;100.00;98590.46;104021;1283;61836;-70
2022/08/18 08:25:49;;;;;;;16.60;15.10;;;;;;;27.44;100.00;98600.38;104234;1281;74159;-74
2022/08/18 08:28:43;;;;;;;15.40;13.90;;;;;;;27.56;100.00;98599.09;104405;1281;61474;-72
2022/08/18 08:31:18;;;;;;;15.50;14.10;;;;;;;27.69;100.00;98606.73;104495;1279;73642;-71
2022/08/18 08:33:50;;;;;;;16.70;15.10;;;;;;;27.69;100.00;98606.11;104426;1280;61585;-72
2022/08/18 08:36:27;;;;;;;15.60;14.10;;;;;;;27.75;100.00;98615.38;104604;1278;61353;-71
2022/08/18 08:39:03;;;;;;;15.00;13.80;;;;;;;27.81;100.00;98617.73;104596;1278;76203;-73
2022/08/18 08:41:49;;;;;;;15.60;14.20;;;;;;;27.88;100.00;98616.98;104693;1278;69404;-71
2022/08/18 08:44:28;;;;;;;15.40;14.10;;;;;;;28.00;100.00;98614.43;104619;1280;73504;-72
2022/08/18 08:47:01;;;;;;;18.30;14.90;;;;;;;28.16;100.00;98613.91;105236;1271;61400;-73
2022/08/18 08:49:35;;;;;;;14.70;13.40;;;;;;;28.22;100.00;98619.02;105305;1271;61250;-71
2022/08/18 08:52:19;;;;;;;15.00;13.60;;;;;;;28.38;100.00;98619.48;105239;1271;76991;-72
2022/08/18 08:55:03;;;;;;;14.90;13.40;;;;;;;28.50;100.00;98622.64;105264;1270;69220;-72
2022/08/18 08:57:38;;;;;;;14.40;13.20;;;;;;;28.49;100.00;98622.84;105224;1271;74095;-72
2022/08/18 09:00:08;;;;;;;14.60;13.40;;;;;;;28.49;100.00;98616.44;105321;1271;61381;-72
2022/08/18 09:02:57;;;;;;;14.90;13.50;;;;;;;28.49;100.00;98613.95;105330;1271;61195;-71
2022/08/18 09:05:40;;;;;;;15.80;14.30;;;;;;;28.50;100.00;98609.37;105164;1271;75096;-72
2022/08/18 09:08:29;;;;;;;14.90;13.50;;;;;;;28.64;100.00;98599.55;105244;1271;69114;-73
2022/08/18 09:11:21;;;;;;;15.10;13.50;;;;;;;28.67;100.00;98594.11;105250;1270;73367;-73
2022/08/18 09:13:59;;;;;;;14.30;13.00;;;;;;;28.73;100.00;98589.98;105215;1270;61418;-73
2022/08/18 09:16:56;;;;;;;13.80;12.60;;;;;;;28.87;100.00;98590.83;105260;1271;61277;-71
2022/08/18 09:20:00;;;;;;;14.40;13.10;;;;;;;29.10;100.00;98591.55;105059;1271;73927;-71
2022/08/18 09:22:44;;;;;;;16.00;13.10;;;;;;;29.22;100.00;98594.34;104582;1278;69238;-72
2022/08/18 09:25:48;;;;;;;14.50;13.10;;;;;;;29.24;100.00;98590.35;104689;1278;72375;-71
2022/08/18 09:28:19;;;;;;;14.90;12.60;;;;;;;29.30;100.00;98585.81;104616;1278;61255;-73
2022/08/18 09:31:00;;;;;;;12.70;11.70;;;;;;;29.43;100.00;98588.96;104557;1278;61348;-72
2022/08/18 09:33:44;;;;;;;13.70;12.40;;;;;;;29.59;100.00;98584.95;104586;1278;73658;-72
2022/08/18 09:36:17;;;;;;;12.00;11.10;;;;;;;29.68;100.00;98587.06;104569;1278;69978;-71
2022/08/18 09:42:03;;;;;;;11.00;10.10;;;;;;;29.52;100.00;98585.09;104613;1280;61579;-72
2022/08/18 09:44:46;;;;;;;12.00;10.90;;;;;;;29.60;100.00;98592.13;104802;1280;61270;-71
2022/08/18 09:47:19;;;;;;;12.10;11.00;;;;;;;29.71;100.00;98592.98;103212;1280;1954055;-71
2022/08/18 09:50:10;;;;;;;13.50;11.50;;;;;;;29.79;100.00;98591.11;104646;1280;68439;-71
2022/08/18 09:52:38;;;;;;;12.10;11.10;;;;;;;29.91;100.00;98590.36;103888;1285;73809;-71
2022/08/18 09:55:26;;;;;;;12.20;10.90;;;;;;;29.95;100.00;98592.41;103983;1284;61312;-72
2022/08/18 09:58:27;;;;;;;12.70;11.50;;;;;;;29.92;100.00;98598.67;104192;1284;60773;-72
2022/08/18 10:01:19;;;;;;;11.80;10.70;;;;;;;29.84;100.00;98595.75;104788;1277;76174;-72
2022/08/18 10:04:13;;;;;;;11.70;10.60;;;;;;;29.84;100.00;98594.11;104809;1277;69172;-71
2022/08/18 10:06:42;;;;;;;12.80;11.40;;;;;;;29.89;100.00;98595.38;104775;1277;73184;-71
2022/08/18 10:09:26;;;;;;;11.50;10.40;;;;;;;29.86;100.00;98589.35;104437;1277;61597;-72
2022/08/18 10:12:13;;;;;;;11.50;8.90;;;;;;;29.85;100.00;98584.08;104756;1277;62748;-72
2022/08/18 10:15:05;;;;;;;11.20;10.10;;;;;;;29.91;100.00;98576.59;104779;1277;75994;-72
2022/08/18 10:17:39;;;;;;;10.60;9.60;;;;;;;30.10;100.00;98578.45;104800;1276;69442;-71
2022/08/18 10:20:22;;;;;;;10.90;9.80;;;;;;;30.22;100.00;98574.42;104542;1277;72878;-72
2022/08/18 10:22:49;;;;;;;11.00;9.90;;;;;;;30.30;100.00;98575.36;104761;1277;61536;-72
2022/08/18 10:25:36;;;;;;;10.90;10.00;;;;;;;30.36;100.00;98572.23;104802;1277;61544;-71
2022/08/18 10:28:07;;;;;;;10.70;9.80;;;;;;;30.46;100.00;98571.24;104764;1277;75278;-73
2022/08/18 10:30:33;;;;;;;12.40;10.90;;;;;;;30.57;100.00;98567.08;105092;1271;68631;-72
2022/08/18 10:33:06;;;;;;;12.30;11.20;;;;;;;30.66;100.00;98555.98;105272;1271;61367;-72
2022/08/18 10:35:35;;;;;;;11.60;10.50;;;;;;;30.65;100.00;98554.05;105255;1271;61370;-73
2022/08/18 10:38:11;;;;;;;12.40;11.30;;;;;;;30.50;100.00;98551.05;105317;1271;62001;-73
2022/08/18 10:40:42;;;;;;;11.80;10.80;;;;;;;30.46;100.00;98550.67;105263;1271;74600;-72
2022/08/18 10:43:31;;;;;;;11.90;10.90;;;;;;;30.46;100.00;98550.68;105286;1271;69204;-71
2022/08/18 10:45:58;;;;;;;11.90;10.80;;;;;;;30.52;100.00;98544.21;105285;1271;71952;-71
2022/08/18 10:48:31;;;;;;;14.40;11.40;;;;;;;30.60;100.00;98536.41;105286;1269;61268;-72
2022/08/18 10:51:25;;;;;;;10.60;9.60;;;;;;;30.65;100.00;98543.02;105309;1271;61292;-71
2022/08/18 10:54:03;;;;;;;11.90;11.00;;;;;;;30.53;100.00;98539.44;105307;1271;74625;-72
2022/08/18 10:56:39;;;;;;;12.90;11.60;;;;;;;30.46;100.00;98537.21;105310;1271;68194;-71
2022/08/18 10:59:28;;;;;;;12.10;10.90;;;;;;;30.47;100.00;98529.03;105370;1271;74128;-72
2022/08/18 11:02:08;;;;;;;12.40;11.10;;;;;;;30.64;100.00;98522.84;105296;1271;61314;-71
2022/08/18 11:04:40;;;;;;;12.10;10.90;;;;;;;30.71;100.00;98523.91;105291;1270;61268;-72
2022/08/18 11:07:14;;;;;;;11.70;10.50;;;;;;;30.68;100.00;98527.27;105048;1274;75122;-73
2022/08/18 11:09:42;;;;;;;11.90;10.90;;;;;;;30.71;100.00;98525.73;105356;1271;69018;-71
2022/08/18 11:12:12;;;;;;;11.80;10.40;;;;;;;30.76;100.00;98525.33;105279;1271;73146;-72
2022/08/18 11:15:00;;;;;;;13.20;11.60;;;;;;;30.86;100.00;98523.41;105356;1271;61280;-73
2022/08/18 11:17:59;;;;;;;12.20;11.00;;;;;;;30.92;100.00;98525.95;105270;1271;62656;-72
2022/08/18 11:20:30;;;;;;;12.90;11.30;;;;;;;30.97;100.00;98523.11;105272;1269;76323;-72
2022/08/18 11:23:00;;;;;;;13.00;11.70;;;;;;;30.89;100.00;98517.29;105337;1271;70610;-72
2022/08/18 11:25:36;;;;;;;14.30;12.80;;;;;;;30.94;100.00;98513.20;105410;1271;74376;-71
2022/08/18 11:28:14;;;;;;;13.80;12.60;;;;;;;30.84;100.00;98508.07;105487;1271;61500;-72
2022/08/18 11:30:43;;;;;;;14.30;13.20;;;;;;;30.78;100.00;98509.91;105334;1271;61259;-72
2022/08/18 11:33:16;;;;;;;14.00;12.80;;;;;;;30.77;100.00;98505.80;105335;1271;76179;-72
2022/08/18 11:35:49;;;;;;;12.00;10.80;;;;;;;30.75;100.00;98506.71;105281;1271;70364;-71
2022/08/18 11:38:18;;;;;;;12.00;11.00;;;;;;;30.76;100.00;98503.03;105201;1271;73609;-71
2022/08/18 11:40:48;;;;;;;12.40;11.20;;;;;;;30.81;100.00;98498.27;105296;1271;61176;-72
2022/08/18 11:43:25;;;;;;;12.50;11.50;;;;;;;30.89;100.00;98494.39;105278;1271;61261;-70
2022/08/18 11:45:58;;;;;;;12.20;11.10;;;;;;;30.96;100.00;98487.77;105354;1271;76861;-71
2022/08/18 11:48:27;;;;;;;12.20;10.60;;;;;;;31.05;100.00;98491.63;105343;1271;70397;-73